Time;durP1;ratioP1;P1;durP2;ratioP2;P2;SDS_P1;SDS_P2;PMS_P1;PMS_P2;Temp;Humidity;BMP_temperature;BMP_pressure;BME280_temperature;BME280_humidity;BME280_pressure;Samples;Min_cycle;Max_cycle;Signal;HPM_P1;HPM_P2
2023/07/08 00:01:08;;;;;;;1.33;1.33;;;;;;;20.83;50.36;95651.50;4358365;32;23001;-64
2023/07/08 00:03:33;;;;;;;3.13;2.27;;;;;;;20.70;50.20;95661.63;4348662;32;20301;-64
2023/07/08 00:05:59;;;;;;;1.70;1.60;;;;;;;20.67;50.65;95656.94;4340242;32;20201;-65
2023/07/08 00:08:24;;;;;;;0.90;0.90;;;;;;;20.68;50.95;95652.31;4332903;32;20219;-64
2023/07/08 00:10:51;;;;;;;1.60;1.53;;;;;;;20.51;50.92;95656.94;4347493;32;20197;-64
2023/07/08 00:13:18;;;;;;;1.90;1.53;;;;;;;20.62;51.49;95661.78;4342155;32;20193;-64
2023/07/08 00:15:44;;;;;;;2.30;2.20;;;;;;;20.66;51.55;95654.56;4345897;32;20197;-64
2023/07/08 00:18:13;;;;;;;4.40;2.27;;;;;;;20.58;51.20;95656.31;4354917;32;20185;-64
2023/07/08 00:20:48;;;;;;;2.17;1.67;;;;;;;20.56;51.63;95648.59;4340889;32;20193;-64
2023/07/08 00:23:13;;;;;;;1.47;1.37;;;;;;;20.46;51.28;95638.34;4353228;32;20220;-64
2023/07/08 00:25:39;;;;;;;2.10;1.33;;;;;;;20.44;52.07;95637.09;4332679;32;20193;-64
2023/07/08 00:28:09;;;;;;;2.03;1.83;;;;;;;20.45;52.35;95641.37;4355151;32;20208;-64
2023/07/08 00:30:34;;;;;;;1.87;1.77;;;;;;;20.39;52.32;95642.75;4354342;32;20283;-64
2023/07/08 00:33:00;;;;;;;2.67;1.40;;;;;;;20.31;52.34;95641.00;4342424;32;20199;-64
2023/07/08 00:35:33;;;;;;;4.83;2.57;;;;;;;20.35;52.46;95637.28;4346388;32;20241;-65
2023/07/08 00:38:02;;;;;;;2.00;1.90;;;;;;;20.34;52.81;95651.09;4349277;32;20208;-65
2023/07/08 00:40:32;;;;;;;1.40;1.40;;;;;;;20.32;52.91;95643.34;4339182;32;20197;-64
2023/07/08 00:43:00;;;;;;;2.43;2.33;;;;;;;20.15;53.79;95639.09;4341428;32;20248;-64
2023/07/08 00:45:34;;;;;;;2.27;2.17;;;;;;;19.76;54.34;95638.03;4318196;32;20228;-64
2023/07/08 00:48:21;;;;;;;2.27;2.17;;;;;;;19.78;54.71;95641.19;4340191;32;20205;-64
2023/07/08 00:50:48;;;;;;;2.40;2.30;;;;;;;19.75;54.57;95635.69;4339663;32;20185;-64
2023/07/08 00:53:35;;;;;;;2.10;1.97;;;;;;;19.67;55.02;95648.19;4342851;32;20185;-64
2023/07/08 00:56:02;;;;;;;2.20;2.10;;;;;;;19.81;55.54;95639.72;4323799;32;20204;-64
2023/07/08 00:58:34;;;;;;;2.20;2.10;;;;;;;19.83;55.27;95649.00;4313248;32;20231;-64
2023/07/08 01:01:01;;;;;;;1.47;1.37;;;;;;;19.88;55.24;95643.38;4347091;32;20240;-64
2023/07/08 01:03:27;;;;;;;2.07;1.90;;;;;;;19.95;55.53;95639.31;4332634;32;20221;-64
2023/07/08 01:05:59;;;;;;;1.50;1.50;;;;;;;20.00;55.10;95647.13;4343640;32;20208;-64
2023/07/08 01:08:28;;;;;;;2.67;2.47;;;;;;;19.92;55.68;95645.38;4346197;32;20197;-64
2023/07/08 01:11:01;;;;;;;3.97;3.57;;;;;;;19.83;55.88;95642.84;4337321;32;20193;-64
2023/07/08 01:13:29;;;;;;;2.40;2.20;;;;;;;19.92;56.30;95634.63;4330925;32;20244;-64
2023/07/08 01:15:55;;;;;;;2.40;2.20;;;;;;;19.82;56.59;95635.88;4332719;32;20197;-64
2023/07/08 01:18:21;;;;;;;3.13;2.93;;;;;;;19.77;57.19;95638.81;4333740;32;20194;-64
2023/07/08 01:20:47;;;;;;;4.47;2.23;;;;;;;19.77;57.22;95634.22;4337529;32;20193;-64
2023/07/08 01:23:13;;;;;;;1.73;1.73;;;;;;;19.77;56.99;95633.44;4330858;32;20202;-64
2023/07/08 01:25:41;;;;;;;2.00;1.90;;;;;;;19.75;57.15;95644.56;4337625;32;20227;-64
2023/07/08 01:28:07;;;;;;;1.93;1.83;;;;;;;19.79;57.31;95648.13;4334374;32;20190;-64
2023/07/08 01:30:32;;;;;;;2.43;2.23;;;;;;;19.79;57.21;95648.13;4327153;32;20217;-64
2023/07/08 01:33:15;;;;;;;1.70;1.60;;;;;;;19.75;57.35;95641.84;4338162;32;20347;-64
2023/07/08 01:35:41;;;;;;;2.23;2.03;;;;;;;19.67;57.49;95645.50;4341500;32;20264;-64
2023/07/08 01:38:10;;;;;;;1.80;1.70;;;;;;;19.78;57.43;95651.94;4320398;32;20189;-64
2023/07/08 01:40:37;;;;;;;2.73;2.33;;;;;;;19.77;57.60;95661.16;4335337;32;21822;-64
2023/07/08 01:43:04;;;;;;;4.07;3.07;;;;;;;19.54;58.21;95646.66;4335757;32;20250;-64
2023/07/08 01:45:36;;;;;;;3.40;3.10;;;;;;;19.67;57.98;95650.88;4335304;32;20190;-64
2023/07/08 01:48:08;;;;;;;1.90;1.80;;;;;;;19.75;58.08;95643.75;4345129;32;20196;-64
2023/07/08 01:50:38;;;;;;;2.70;2.50;;;;;;;19.73;58.06;95644.13;4301095;32;20291;-64
2023/07/08 01:53:10;;;;;;;2.87;2.60;;;;;;;19.51;58.81;95642.75;4329777;32;22616;-64
2023/07/08 01:55:35;;;;;;;2.80;2.67;;;;;;;19.51;58.75;95636.59;4323894;32;20190;-64
2023/07/08 01:58:00;;;;;;;9.80;2.87;;;;;;;19.48;58.82;95639.94;4345969;32;20213;-64
2023/07/08 02:00:26;;;;;;;5.10;2.83;;;;;;;19.41;58.88;95637.03;4331749;32;20255;-64
2023/07/08 02:02:51;;;;;;;3.77;2.87;;;;;;;19.40;59.26;95638.16;4337965;32;20231;-64
2023/07/08 02:05:17;;;;;;;3.83;1.90;;;;;;;19.33;59.40;95636.03;4338005;32;20248;-64
2023/07/08 02:07:42;;;;;;;2.00;1.90;;;;;;;19.42;59.31;95636.69;4330978;32;20205;-64
2023/07/08 02:10:08;;;;;;;1.93;1.83;;;;;;;19.29;59.24;95635.19;4333822;32;20217;-64
2023/07/08 02:12:33;;;;;;;2.47;2.37;;;;;;;19.33;59.57;95630.66;4324164;32;20292;-64
2023/07/08 02:15:02;;;;;;;2.50;2.40;;;;;;;19.28;59.81;95627.44;4340394;32;20211;-64
2023/07/08 02:17:30;;;;;;;2.70;2.13;;;;;;;19.42;59.47;95634.00;4345943;32;20193;-64
2023/07/08 02:19:56;;;;;;;1.77;1.67;;;;;;;19.47;59.17;95624.91;4333178;32;20204;-64
2023/07/08 02:22:21;;;;;;;2.00;1.90;;;;;;;19.40;59.38;95625.50;4327310;32;20194;-64
2023/07/08 02:24:47;;;;;;;2.27;2.17;;;;;;;19.44;58.89;95625.59;4334222;32;20193;-64
2023/07/08 02:27:13;;;;;;;2.20;2.10;;;;;;;19.59;58.26;95627.56;4330747;32;20185;-64
2023/07/08 02:29:38;;;;;;;1.70;1.67;;;;;;;19.59;58.55;95629.47;4331316;32;20194;-64
2023/07/08 02:32:06;;;;;;;2.23;2.13;;;;;;;19.52;58.32;95622.00;4337745;32;20290;-66
2023/07/08 02:34:31;;;;;;;2.03;1.93;;;;;;;19.52;58.62;95628.19;4330113;32;20190;-66
2023/07/08 02:36:57;;;;;;;2.47;2.27;;;;;;;19.55;58.31;95624.78;4350257;32;20192;-66
2023/07/08 02:39:23;;;;;;;4.10;2.13;;;;;;;19.50;58.05;95624.25;4358693;32;20189;-66
2023/07/08 02:41:48;;;;;;;3.00;1.73;;;;;;;19.60;58.02;95621.06;4357367;32;20203;-67
2023/07/08 02:44:14;;;;;;;2.03;1.93;;;;;;;19.72;57.80;95621.03;4353425;32;20196;-66
2023/07/08 02:46:39;;;;;;;2.47;2.37;;;;;;;19.69;57.83;95616.31;4360012;32;20193;-66
2023/07/08 02:49:05;;;;;;;2.70;2.50;;;;;;;19.72;58.03;95618.34;4338458;32;20204;-66
2023/07/08 02:51:31;;;;;;;2.73;2.63;;;;;;;19.67;58.06;95620.50;4337631;32;20180;-64
2023/07/08 02:53:56;;;;;;;2.13;1.93;;;;;;;19.67;57.87;95618.56;4341225;32;20217;-65
2023/07/08 02:56:22;;;;;;;3.20;2.13;;;;;;;19.56;58.08;95628.25;4356045;32;20231;-64
2023/07/08 02:58:48;;;;;;;2.97;2.53;;;;;;;19.46;58.41;95624.13;4354064;32;20210;-64
2023/07/08 03:01:17;;;;;;;2.13;2.03;;;;;;;19.39;59.16;95629.31;4345150;32;20199;-64
2023/07/08 03:03:43;;;;;;;3.13;2.50;;;;;;;19.37;58.70;95625.37;4344694;32;20193;-64
2023/07/08 03:06:09;;;;;;;2.83;2.63;;;;;;;19.41;58.59;95623.59;4356121;32;20203;-64
2023/07/08 03:08:34;;;;;;;3.40;1.83;;;;;;;19.60;58.39;95631.84;4357144;32;20323;-64
2023/07/08 03:11:02;;;;;;;2.30;2.20;;;;;;;19.58;58.58;95619.84;4346569;32;20200;-64
2023/07/08 03:13:28;;;;;;;1.90;1.80;;;;;;;19.63;58.08;95622.28;4360063;32;20196;-64
2023/07/08 03:15:57;;;;;;;1.57;1.53;;;;;;;19.64;58.57;95621.16;4345645;32;20228;-64
2023/07/08 03:18:26;;;;;;;1.63;1.57;;;;;;;19.61;58.54;95619.94;4356222;32;20252;-64
2023/07/08 03:20:53;;;;;;;2.37;2.27;;;;;;;19.74;58.16;95629.53;4349083;32;20193;-64
2023/07/08 03:23:18;;;;;;;2.23;2.13;;;;;;;19.72;58.54;95634.50;4346215;32;20228;-64
2023/07/08 03:25:44;;;;;;;2.20;1.93;;;;;;;19.71;58.45;95624.84;4354913;32;20205;-64
2023/07/08 03:28:14;;;;;;;1.73;1.70;;;;;;;19.61;58.44;95625.31;4358405;32;20193;-64
2023/07/08 03:30:43;;;;;;;2.00;1.90;;;;;;;19.55;58.62;95624.00;4344344;32;20251;-66
2023/07/08 03:33:09;;;;;;;2.30;2.10;;;;;;;19.39;59.13;95620.44;4356351;32;20189;-66
2023/07/08 03:35:35;;;;;;;3.70;2.93;;;;;;;19.30;59.09;95606.38;4358203;32;20193;-64
2023/07/08 03:38:01;;;;;;;1.17;1.17;;;;;;;19.29;59.22;95610.19;4355830;32;20193;-64
2023/07/08 03:40:26;;;;;;;1.10;1.10;;;;;;;19.31;59.47;95607.94;4357871;32;20251;-64
2023/07/08 03:42:51;;;;;;;1.93;1.83;;;;;;;19.25;59.33;95609.28;4343707;32;20194;-64
2023/07/08 03:45:17;;;;;;;2.53;2.13;;;;;;;19.34;59.50;95615.31;4353693;32;20227;-64
2023/07/08 03:47:42;;;;;;;1.43;1.43;;;;;;;19.35;60.08;95622.25;4351886;32;20181;-64
2023/07/08 03:50:22;;;;;;;2.40;2.30;;;;;;;19.43;59.00;95614.03;4350300;32;20240;-64
2023/07/08 03:52:50;;;;;;;2.57;2.43;;;;;;;19.34;59.24;95613.38;4357774;32;20185;-64
2023/07/08 03:55:16;;;;;;;1.80;1.70;;;;;;;19.40;59.18;95613.94;4359729;32;20207;-64
2023/07/08 03:57:41;;;;;;;1.23;1.23;;;;;;;19.35;59.10;95606.09;4361217;32;20228;-64
2023/07/08 04:00:11;;;;;;;6.60;2.10;;;;;;;19.38;59.10;95610.81;4358374;32;20247;-64
2023/07/08 04:02:40;;;;;;;2.27;2.17;;;;;;;19.35;59.42;95620.34;4358768;32;20181;-64
2023/07/08 04:05:06;;;;;;;2.37;2.27;;;;;;;19.43;58.96;95624.03;4356065;32;20200;-65
2023/07/08 04:07:33;;;;;;;2.03;1.93;;;;;;;19.26;59.91;95618.94;4359493;32;20196;-64
2023/07/08 04:09:58;;;;;;;1.53;1.43;;;;;;;19.35;59.99;95627.63;4352509;32;20192;-64
2023/07/08 04:12:23;;;;;;;1.70;1.63;;;;;;;19.39;59.72;95626.63;4345504;32;20238;-64
2023/07/08 04:14:49;;;;;;;2.40;2.30;;;;;;;19.43;59.69;95626.72;4349866;32;20208;-64
2023/07/08 04:17:15;;;;;;;2.17;2.07;;;;;;;19.50;59.77;95629.66;4346008;32;20197;-64
2023/07/08 04:19:43;;;;;;;2.63;2.53;;;;;;;19.49;59.97;95628.03;4362836;32;20208;-64
2023/07/08 04:22:09;;;;;;;1.17;1.17;;;;;;;19.54;59.93;95633.19;4346996;32;20203;-64
2023/07/08 04:24:34;;;;;;;2.30;2.20;;;;;;;19.55;59.91;95627.47;4356673;32;20209;-66
2023/07/08 04:27:00;;;;;;;2.00;1.90;;;;;;;19.32;60.62;95625.66;4344131;32;20193;-64
2023/07/08 04:29:25;;;;;;;1.13;1.13;;;;;;;19.25;61.37;95628.13;4360278;32;20205;-64
2023/07/08 04:31:50;;;;;;;2.83;2.63;;;;;;;19.44;60.53;95620.22;4346618;32;20240;-64
2023/07/08 04:34:16;;;;;;;2.23;2.13;;;;;;;19.39;60.48;95623.91;4347597;32;20229;-64
2023/07/08 04:36:42;;;;;;;1.97;1.87;;;;;;;19.38;60.77;95621.56;4362165;32;20227;-64
2023/07/08 04:39:09;;;;;;;2.20;2.10;;;;;;;19.27;61.29;95631.25;4356849;32;20185;-64
2023/07/08 04:41:40;;;;;;;1.60;1.57;;;;;;;19.45;60.79;95635.22;4344641;32;20315;-65
2023/07/08 04:44:10;;;;;;;2.23;1.83;;;;;;;19.18;62.08;95634.84;4358953;32;20193;-64
2023/07/08 04:46:55;;;;;;;1.63;1.57;;;;;;;19.17;61.97;95635.97;4352669;32;20212;-64
2023/07/08 04:49:21;;;;;;;1.30;1.30;;;;;;;19.25;62.23;95646.97;4348380;32;20196;-64
2023/07/08 04:51:46;;;;;;;2.47;2.37;;;;;;;19.41;61.98;95663.94;4336089;32;20239;-64
2023/07/08 04:54:12;;;;;;;2.83;2.63;;;;;;;19.34;62.50;95664.50;4360134;32;20212;-64
2023/07/08 04:56:41;;;;;;;2.93;2.73;;;;;;;19.36;61.87;95664.97;4353524;32;20217;-65
2023/07/08 04:59:13;;;;;;;2.93;1.90;;;;;;;19.38;61.98;95676.16;4359734;32;20185;-64
2023/07/08 05:01:38;;;;;;;3.00;2.80;;;;;;;19.42;62.62;95687.03;4357902;32;20224;-64
2023/07/08 05:04:06;;;;;;;2.90;2.60;;;;;;;19.42;63.50;95687.03;4359881;32;20285;-64
2023/07/08 05:06:33;;;;;;;3.03;2.83;;;;;;;19.50;62.82;95686.16;4359519;32;20252;-64
2023/07/08 05:09:00;;;;;;;1.93;1.83;;;;;;;19.42;62.66;95689.72;4357671;32;20193;-64
2023/07/08 05:11:25;;;;;;;2.60;2.37;;;;;;;19.53;62.22;95690.88;4359420;32;20189;-64
2023/07/08 05:13:51;;;;;;;2.00;1.90;;;;;;;19.51;62.27;95685.81;4359701;32;20248;-64
2023/07/08 05:16:16;;;;;;;2.90;2.60;;;;;;;19.32;63.17;95682.16;4335583;32;20275;-64
2023/07/08 05:18:41;;;;;;;2.20;2.10;;;;;;;19.40;63.15;95694.66;4346384;32;20215;-64
2023/07/08 05:21:08;;;;;;;2.90;2.70;;;;;;;19.58;62.55;95690.59;4344870;32;20177;-65
2023/07/08 05:23:33;;;;;;;2.17;2.07;;;;;;;19.34;63.49;95696.81;4345713;32;20290;-64
2023/07/08 05:26:01;;;;;;;2.47;2.37;;;;;;;19.41;63.20;95701.63;4356954;32;20181;-64
2023/07/08 05:28:26;;;;;;;2.53;2.37;;;;;;;19.44;63.75;95695.56;4359198;32;20185;-64
2023/07/08 05:30:55;;;;;;;2.17;2.07;;;;;;;19.48;63.48;95691.84;4346440;32;20193;-64
2023/07/08 05:33:24;;;;;;;2.53;2.30;;;;;;;19.45;63.37;95697.13;4357315;32;20188;-64
2023/07/08 05:35:50;;;;;;;1.53;1.53;;;;;;;19.49;63.73;95708.78;4338469;32;20192;-64
2023/07/08 05:38:15;;;;;;;2.93;2.27;;;;;;;19.42;64.25;95703.19;4360497;32;20203;-64
2023/07/08 05:40:41;;;;;;;1.40;1.40;;;;;;;19.54;63.34;95693.19;4363227;32;20189;-64
2023/07/08 05:43:06;;;;;;;1.90;1.80;;;;;;;19.60;62.62;95682.97;4361137;32;20196;-64
2023/07/08 05:45:32;;;;;;;1.83;1.73;;;;;;;19.79;61.97;95682.34;4354148;32;20204;-64
2023/07/08 05:47:57;;;;;;;2.60;2.50;;;;;;;19.82;62.21;95679.75;4357651;32;20232;-64
2023/07/08 05:50:22;;;;;;;2.43;2.33;;;;;;;19.90;61.65;95680.75;4337937;32;20190;-64
2023/07/08 05:52:48;;;;;;;2.90;2.70;;;;;;;19.92;63.17;95672.31;4356135;32;20261;-64
2023/07/08 05:55:15;;;;;;;2.03;1.93;;;;;;;19.90;62.66;95680.75;4363103;32;20189;-64
2023/07/08 05:57:40;;;;;;;4.17;2.50;;;;;;;20.04;62.09;95680.34;4348880;32;20260;-64
2023/07/08 06:00:08;;;;;;;3.23;2.90;;;;;;;19.95;61.61;95677.81;4360833;32;20189;-64
2023/07/08 06:02:33;;;;;;;5.97;2.03;;;;;;;20.11;61.17;95681.31;4357053;32;20189;-64
2023/07/08 06:04:58;;;;;;;2.97;2.73;;;;;;;20.23;61.84;95683.94;4358251;32;20203;-64
2023/07/08 06:07:24;;;;;;;4.97;3.20;;;;;;;19.96;61.78;95683.94;4348043;32;20208;-64
2023/07/08 06:09:49;;;;;;;1.90;1.77;;;;;;;19.92;62.35;95685.78;4362297;32;20247;-64
2023/07/08 06:12:14;;;;;;;3.17;2.93;;;;;;;20.19;61.49;95683.03;4362382;32;20235;-64
2023/07/08 06:14:40;;;;;;;2.60;2.33;;;;;;;20.35;63.13;95685.78;4350141;32;20209;-64
2023/07/08 06:17:06;;;;;;;2.90;2.80;;;;;;;20.31;62.92;95679.50;4354781;32;20196;-65
2023/07/08 06:19:32;;;;;;;2.23;2.13;;;;;;;20.43;61.43;95678.66;4361498;32;20216;-64
2023/07/08 06:21:57;;;;;;;2.57;2.37;;;;;;;20.37;62.65;95680.84;4358132;32;20252;-65
2023/07/08 06:24:23;;;;;;;2.30;2.17;;;;;;;20.48;62.76;95683.81;4346125;32;20201;-64
2023/07/08 06:26:48;;;;;;;1.53;1.53;;;;;;;20.56;63.79;95683.66;4358588;32;20266;-64
2023/07/08 06:29:15;;;;;;;1.47;1.47;;;;;;;20.55;62.86;95682.09;4362718;32;20189;-65
2023/07/08 06:31:41;;;;;;;1.80;1.70;;;;;;;20.53;62.02;95673.56;4358694;32;20193;-65
2023/07/08 06:34:06;;;;;;;2.90;2.70;;;;;;;20.60;61.91;95681.00;4349269;32;20215;-65
2023/07/08 06:36:32;;;;;;;1.97;1.87;;;;;;;20.76;61.70;95684.50;4357855;32;20200;-64
2023/07/08 06:38:57;;;;;;;2.60;2.40;;;;;;;20.92;62.53;95685.28;4360132;32;20197;-64
2023/07/08 06:41:22;;;;;;;6.07;2.20;;;;;;;20.93;62.77;95672.56;4345395;32;20219;-64
2023/07/08 06:43:48;;;;;;;1.63;1.63;;;;;;;20.89;62.87;95675.19;4360930;32;20199;-64
2023/07/08 06:46:14;;;;;;;4.93;2.20;;;;;;;21.00;63.41;95688.91;4362597;32;20229;-64
2023/07/08 06:48:39;;;;;;;1.80;1.70;;;;;;;21.13;60.66;95682.28;4348897;32;20208;-64
2023/07/08 06:51:04;;;;;;;2.03;1.90;;;;;;;21.24;59.98;95677.91;4343819;32;20197;-64
2023/07/08 06:53:30;;;;;;;2.20;2.10;;;;;;;21.04;61.49;95684.38;4362217;32;20209;-64
2023/07/08 06:55:55;;;;;;;2.03;1.93;;;;;;;21.12;60.96;95688.81;4346022;32;20245;-64
2023/07/08 06:58:20;;;;;;;2.57;2.37;;;;;;;21.24;60.21;95699.50;4345182;32;20228;-64
2023/07/08 07:00:45;;;;;;;2.40;2.17;;;;;;;21.19;61.15;95702.47;4345254;32;20196;-64
2023/07/08 07:03:12;;;;;;;2.50;2.40;;;;;;;21.18;61.99;95694.72;4350901;32;20193;-65
2023/07/08 07:05:37;;;;;;;2.33;2.20;;;;;;;21.20;60.59;95698.62;4347814;32;20218;-64
2023/07/08 07:08:04;;;;;;;2.77;2.60;;;;;;;21.19;61.70;95702.47;4346465;32;20270;-64
2023/07/08 07:10:30;;;;;;;2.00;1.90;;;;;;;21.21;61.52;95700.22;4354488;32;20193;-65
2023/07/08 07:12:55;;;;;;;2.83;2.73;;;;;;;21.12;62.31;95696.91;4360761;32;20239;-64
2023/07/08 07:15:20;;;;;;;2.70;2.60;;;;;;;21.27;62.48;95696.09;4348412;32;20196;-64
2023/07/08 07:17:46;;;;;;;2.20;2.10;;;;;;;21.38;61.13;95695.56;4347021;32;20193;-64
2023/07/08 07:20:12;;;;;;;1.90;1.80;;;;;;;21.37;62.23;95697.50;4362711;32;20189;-64
2023/07/08 07:22:37;;;;;;;1.30;1.23;;;;;;;21.39;61.76;95695.22;4349151;32;20203;-64
2023/07/08 07:25:04;;;;;;;2.60;2.47;;;;;;;21.53;61.24;95690.12;4360987;32;20201;-64
2023/07/08 07:27:29;;;;;;;2.60;2.40;;;;;;;21.43;61.53;95696.06;4361623;32;20208;-64
2023/07/08 07:29:54;;;;;;;4.23;2.50;;;;;;;;;;4366343;32;20201;-65
2023/07/08 07:32:24;;;;;;;2.43;2.23;;;;;;;21.51;62.58;95700.47;4363445;32;20216;-64
2023/07/08 07:34:50;;;;;;;2.17;2.07;;;;;;;21.58;62.04;95694.47;4361512;32;20205;-65
2023/07/08 07:37:18;;;;;;;2.83;2.23;;;;;;;21.47;61.61;95702.31;4344266;32;20193;-64
2023/07/08 07:39:44;;;;;;;2.87;2.00;;;;;;;21.63;60.32;95696.84;4341018;32;20215;-65
2023/07/08 07:42:11;;;;;;;2.60;2.40;;;;;;;21.61;60.42;95702.59;4352050;32;20205;-64
2023/07/08 07:44:36;;;;;;;5.07;1.97;;;;;;;21.65;61.27;95700.00;4350771;32;20204;-64
2023/07/08 07:47:03;;;;;;;4.87;1.87;;;;;;;21.57;62.45;95717.19;4349212;32;20197;-64
2023/07/08 07:49:28;;;;;;;2.70;2.60;;;;;;;21.46;61.29;95727.75;4343398;32;20193;-64
2023/07/08 07:51:53;;;;;;;1.47;1.47;;;;;;;21.61;60.96;95740.41;4344037;32;20240;-64
2023/07/08 07:54:19;;;;;;;2.60;2.40;;;;;;;21.66;60.06;95742.06;4343384;32;20197;-64
2023/07/08 07:56:44;;;;;;;2.17;2.07;;;;;;;21.72;58.71;95742.56;4344840;32;20240;-64
2023/07/08 07:59:10;;;;;;;8.93;1.80;;;;;;;21.71;59.78;95743.72;4347346;32;20197;-64
2023/07/08 08:01:36;;;;;;;3.53;3.30;;;;;;;21.62;60.25;95746.59;4340932;32;20194;-64
2023/07/08 08:04:01;;;;;;;5.40;4.63;;;;;;;21.77;59.67;95753.09;4340665;32;20189;-64
2023/07/08 08:06:27;;;;;;;2.27;2.17;;;;;;;21.94;59.09;95753.47;4345448;32;20224;-64
2023/07/08 08:08:52;;;;;;;4.33;3.57;;;;;;;21.94;59.64;95764.28;4345699;32;20193;-64
2023/07/08 08:11:18;;;;;;;7.23;5.93;;;;;;;21.98;59.68;95761.66;4342716;32;20197;-64
2023/07/08 08:13:43;;;;;;;3.33;3.13;;;;;;;22.07;58.39;95766.88;4334270;33;20292;-64
2023/07/08 08:16:08;;;;;;;2.27;2.17;;;;;;;22.10;59.80;95760.75;4343913;32;20185;-64
2023/07/08 08:18:33;;;;;;;3.10;2.83;;;;;;;22.20;58.72;95762.91;4331606;32;20354;-64
2023/07/08 08:20:59;;;;;;;3.17;2.47;;;;;;;22.21;58.49;95762.53;4340714;32;20245;-64
2023/07/08 08:23:24;;;;;;;2.60;2.23;;;;;;;22.25;59.11;95768.00;4345126;32;20193;-64
2023/07/08 08:25:51;;;;;;;2.97;2.43;;;;;;;22.27;59.21;95768.41;4332066;33;20253;-64
2023/07/08 08:28:16;;;;;;;4.80;2.30;;;;;;;22.33;59.44;95774.31;4343795;32;20233;-64
2023/07/08 08:30:42;;;;;;;2.93;2.80;;;;;;;22.31;59.84;95788.19;4344123;32;20197;-64
2023/07/08 08:33:08;;;;;;;1.80;1.70;;;;;;;22.32;59.97;95802.50;4342463;32;20243;-64
2023/07/08 08:35:33;;;;;;;1.80;1.70;;;;;;;22.36;60.47;95796.03;4340935;32;20254;-64
2023/07/08 08:37:59;;;;;;;2.90;2.70;;;;;;;22.38;59.80;95790.25;4346273;32;20202;-65
2023/07/08 08:40:24;;;;;;;2.23;2.13;;;;;;;22.37;60.27;95775.97;4331149;32;20189;-64
2023/07/08 08:42:59;;;;;;;2.10;2.00;;;;;;;22.32;60.80;95784.34;4331879;32;20220;-64
2023/07/08 08:45:27;;;;;;;2.10;2.03;;;;;;;22.31;61.97;95787.41;4344622;32;20255;-64
2023/07/08 08:48:05;;;;;;;2.00;1.90;;;;;;;22.27;60.90;95785.41;4332685;32;20217;-64
2023/07/08 08:50:34;;;;;;;2.10;2.00;;;;;;;22.39;58.84;95783.72;4345008;32;20208;-65
2023/07/08 08:53:03;;;;;;;1.80;1.80;;;;;;;22.52;59.22;95785.91;4340873;32;20193;-65
2023/07/08 08:55:30;;;;;;;1.40;1.40;;;;;;;22.60;57.51;95784.91;4342377;33;20198;-65
2023/07/08 08:58:37;;;;;;;2.10;2.00;;;;;;;22.67;58.77;95781.53;4343774;32;20194;-64
2023/07/08 09:01:07;;;;;;;2.37;2.27;;;;;;;22.68;58.29;95780.38;4345125;32;20269;-64
2023/07/08 09:03:45;;;;;;;2.47;2.23;;;;;;;22.68;57.07;95780.38;4340645;32;20252;-64
2023/07/08 09:06:32;;;;;;;3.13;2.77;;;;;;;22.70;57.71;95775.41;4346699;32;20231;-65
2023/07/08 09:09:03;;;;;;;2.30;2.13;;;;;;;22.74;58.40;95780.88;4345452;32;20251;-64
2023/07/08 09:11:44;;;;;;;4.30;2.03;;;;;;;22.81;57.17;95789.16;4336310;32;20193;-65
2023/07/08 09:14:16;;;;;;;1.40;1.40;;;;;;;22.87;56.86;95787.69;4334195;32;20207;-65
2023/07/08 09:16:56;;;;;;;2.20;2.10;;;;;;;22.92;55.06;95790.12;4351730;32;20212;-65
2023/07/08 09:19:32;;;;;;;1.40;1.40;;;;;;;22.96;56.28;95793.66;4347063;32;20193;-65
2023/07/08 09:22:20;;;;;;;1.13;1.13;;;;;;;22.94;56.30;95790.53;4346012;32;20234;-66
2023/07/08 09:24:54;;;;;;;1.83;1.73;;;;;;;22.98;55.74;95799.50;4331923;32;20291;-64
2023/07/08 09:27:19;;;;;;;2.40;2.10;;;;;;;23.06;55.34;95795.78;4345590;32;20249;-64
2023/07/08 09:29:45;;;;;;;2.13;1.93;;;;;;;23.12;54.99;95794.31;4346769;32;20189;-64
2023/07/08 09:32:22;;;;;;;1.27;1.27;;;;;;;23.21;54.36;95792.16;4342610;32;20212;-64
2023/07/08 09:34:53;;;;;;;1.27;1.20;;;;;;;23.15;54.65;95793.59;4344955;32;20224;-66
2023/07/08 09:37:29;;;;;;;2.73;2.53;;;;;;;23.26;54.38;95793.78;4338073;32;20212;-65
2023/07/08 09:39:57;;;;;;;2.20;2.10;;;;;;;23.36;53.02;95795.88;4339234;32;20215;-65
2023/07/08 09:42:27;;;;;;;1.90;1.73;;;;;;;23.44;54.29;95799.47;4346022;32;20249;-65
2023/07/08 09:44:58;;;;;;;1.53;1.53;;;;;;;23.47;54.27;95796.81;4346618;32;20212;-66
2023/07/08 09:47:32;;;;;;;2.17;2.07;;;;;;;23.53;54.05;95787.25;4332322;32;20197;-65
2023/07/08 09:49:58;;;;;;;2.03;1.93;;;;;;;23.59;53.13;95790.44;4330125;32;20236;-65
2023/07/08 09:52:24;;;;;;;1.47;1.47;;;;;;;23.64;54.09;95779.28;4332381;32;20217;-66
2023/07/08 09:54:50;;;;;;;2.07;1.97;;;;;;;23.81;53.00;95788.81;4332748;32;20210;-64
2023/07/08 09:57:29;;;;;;;2.50;2.30;;;;;;;23.86;52.91;95793.91;4333971;32;20194;-64
2023/07/08 10:00:07;;;;;;;4.07;2.60;;;;;;;23.89;51.50;95787.75;4345546;32;20201;-64
2023/07/08 10:02:40;;;;;;;2.73;2.53;;;;;;;23.96;52.20;95787.84;4346605;32;20232;-65
2023/07/08 10:05:28;;;;;;;2.00;1.97;;;;;;;24.07;51.35;95788.78;4345321;32;20243;-65
2023/07/08 10:07:56;;;;;;;1.70;1.53;;;;;;;24.26;51.68;95790.56;4340228;32;20208;-64
2023/07/08 10:10:30;;;;;;;1.23;1.23;;;;;;;24.39;51.98;95788.38;4344343;32;20358;-66
2023/07/08 10:12:59;;;;;;;2.20;2.10;;;;;;;24.43;50.57;95803.56;4345852;32;20189;-65
2023/07/08 10:15:37;;;;;;;2.33;2.20;;;;;;;24.32;50.92;95798.00;4344043;32;20189;-65
2023/07/08 10:18:02;;;;;;;2.83;2.57;;;;;;;24.39;49.80;95800.03;4345957;32;20212;-65
2023/07/08 10:20:40;;;;;;;2.17;1.67;;;;;;;24.43;49.08;95803.56;4346008;32;20252;-65
2023/07/08 10:23:26;;;;;;;1.73;1.17;;;;;;;24.49;48.18;95804.81;4346250;32;20189;-65
2023/07/08 10:26:06;;;;;;;1.50;1.40;;;;;;;24.54;48.48;95801.75;4344329;32;20215;-65
2023/07/08 10:28:46;;;;;;;1.70;1.33;;;;;;;24.58;48.88;95805.28;4333627;32;20211;-65
2023/07/08 10:31:40;;;;;;;1.30;1.30;;;;;;;24.66;49.05;95815.06;4345541;32;20194;-65
2023/07/08 10:34:21;;;;;;;1.43;1.40;;;;;;;24.83;47.88;95812.91;4330223;32;20208;-66
2023/07/08 10:37:09;;;;;;;1.67;1.57;;;;;;;24.78;46.59;95810.50;4345087;32;20211;-65
2023/07/08 10:39:54;;;;;;;1.70;1.67;;;;;;;24.77;45.92;95817.09;4340421;32;20342;-65
2023/07/08 10:42:27;;;;;;;1.27;1.27;;;;;;;24.76;47.29;95812.81;4339577;32;20206;-64
2023/07/08 10:44:58;;;;;;;1.37;1.27;;;;;;;24.79;47.00;95812.84;4360065;32;20216;-65
2023/07/08 10:47:39;;;;;;;2.47;2.27;;;;;;;24.85;46.90;95805.16;4353524;32;20211;-65
2023/07/08 10:50:17;;;;;;;1.43;1.43;;;;;;;24.85;46.73;95805.16;4358321;32;21942;-65
2023/07/08 10:53:20;;;;;;;1.47;1.37;;;;;;;24.84;46.65;95803.59;4354755;32;20193;-65
2023/07/08 10:55:59;;;;;;;2.57;2.47;;;;;;;24.89;47.26;95806.78;4355649;32;20231;-64
2023/07/08 10:58:52;;;;;;;2.03;1.77;;;;;;;25.00;45.88;95796.81;4345579;32;20184;-65
2023/07/08 11:01:50;;;;;;;2.00;1.90;;;;;;;25.15;45.38;95796.94;4345379;32;20189;-64
2023/07/08 11:04:34;;;;;;;2.50;2.40;;;;;;;25.13;45.74;95800.03;4357419;32;20247;-64
2023/07/08 11:07:10;;;;;;;4.73;1.50;;;;;;;25.14;46.05;95796.16;4352895;32;20250;-65
2023/07/08 11:09:43;;;;;;;7.60;2.57;;;;;;;25.26;44.10;95790.44;4359782;32;20272;-65
2023/07/08 11:12:28;;;;;;;0.93;0.93;;;;;;;25.23;44.84;95788.47;4346051;32;20207;-65
2023/07/08 11:15:07;;;;;;;1.90;1.80;;;;;;;25.42;44.27;95795.59;4354115;32;20203;-65
2023/07/08 11:17:41;;;;;;;1.93;1.83;;;;;;;25.36;44.32;95783.50;4334259;32;20201;-65
2023/07/08 11:20:36;;;;;;;1.00;0.93;;;;;;;25.39;44.94;95784.69;4353760;32;20180;-65
2023/07/08 11:23:11;;;;;;;3.93;2.00;;;;;;;25.50;44.92;95785.56;4340983;32;20193;-65
2023/07/08 11:25:38;;;;;;;1.17;1.17;;;;;;;25.54;45.78;95787.16;4358768;32;20244;-65
2023/07/08 11:28:10;;;;;;;1.90;1.80;;;;;;;25.75;44.61;95785.75;4346811;32;20258;-65
2023/07/08 11:30:39;;;;;;;1.20;1.10;;;;;;;25.80;44.66;95785.37;4358385;32;20318;-65
2023/07/08 11:33:11;;;;;;;1.03;1.03;;;;;;;25.86;44.81;95792.03;4345842;32;20307;-65
2023/07/08 11:35:42;;;;;;;3.10;2.80;;;;;;;25.83;44.61;95792.78;4359744;32;20273;-65
2023/07/08 11:38:17;;;;;;;2.43;2.23;;;;;;;25.81;43.87;95781.50;4345892;32;20207;-65
2023/07/08 11:41:02;;;;;;;1.23;1.23;;;;;;;25.81;43.39;95776.84;4358839;32;20204;-65
2023/07/08 11:43:55;;;;;;;2.10;2.00;;;;;;;25.85;44.86;95783.09;4344260;32;20193;-65